Portada
METAR-TAF:

METAR-TAF

Aeroports :

Hobart, Austràlia

latitud: 42-50S, longitud: 147-29E, altitud: 4 m

Observació

L'informe es va fer fa 51 minuts, a les 10:00 UTC
Vent 9 kt del Nord/Nord-Est
Temperatura 17°C
Humitat 77%
Pressió 1019 hPa
Visibilitat 10 km o més
Escasses núvols a una alçada de 2000 ft
Núvols disperses a una alçada de 18000 ft
calitja

METAR: YMHB 151000Z 03009KT 9999 FEW020 SCT180 17/13 Q1019 RF00.0/000.0 HZ

Hora: 21:51 (10:51 UTC)

Pronòstic

L'informe es va fer fa 5 hores i 48 minuts, a les 05:03 UTC
Pronòstic vàlid del 15 a les 06 UTC al 16 a les 06 UTC
Vent 14 kt del Nord/Nord-Est
Visibilitat 10 km o més
sense núvols per sota de 1500 mi sense presència de cumulonimbus.
A partir de les 15 a les 1200 UTC
Vent 10 kt del Nord/Nord-Est
Visibilitat 10 km o més
Escasses núvols a una alçada de 3500 ft

TAF: YMHB 150503Z 1506/1606 02014KT CAVOK FM151200 02010KT 9999 FEW035

Observacions i pronòstics meteorològics de més de 4000 aeroports (METAR i TAF).

Les estacions disponibles són els punts grocs i vermells al mapa.

Posi el ratolí al punt desitjat per veure el nom de l'estació.

Feu clic per veure les observacions i els pronòstics meteorològics.

Per canviar el mapa: feu clic els botons verds amb una creu de color negre per apropar; al botó verd amb un guió per allunyar la imatge; o en les fletxes verdes per a mapes adjacents.


METAR-TAF: